sensor_id;sensor_type;location;lat;lon;timestamp;P1;durP1;ratioP1;P2;durP2;ratioP2
59097;SDS011;44883;52.760;6.610;2022-08-25T00:01:22;6.70;;;4.45;;
59097;SDS011;44883;52.760;6.610;2022-08-25T00:03:50;7.10;;;4.50;;
59097;SDS011;44883;52.760;6.610;2022-08-25T00:06:16;6.30;;;4.45;;
59097;SDS011;44883;52.760;6.610;2022-08-25T00:08:42;8.07;;;4.75;;
59097;SDS011;44883;52.760;6.610;2022-08-25T00:11:12;6.57;;;4.20;;
59097;SDS011;44883;52.760;6.610;2022-08-25T00:13:41;7.05;;;4.22;;
59097;SDS011;44883;52.760;6.610;2022-08-25T00:16:10;6.93;;;4.38;;
59097;SDS011;44883;52.760;6.610;2022-08-25T00:18:40;6.07;;;4.10;;
59097;SDS011;44883;52.760;6.610;2022-08-25T00:21:09;8.30;;;4.07;;
59097;SDS011;44883;52.760;6.610;2022-08-25T00:23:36;7.63;;;4.18;;
59097;SDS011;44883;52.760;6.610;2022-08-25T00:26:02;5.57;;;4.00;;
59097;SDS011;44883;52.760;6.610;2022-08-25T00:28:28;7.07;;;3.88;;
59097;SDS011;44883;52.760;6.610;2022-08-25T00:30:55;5.55;;;3.90;;
59097;SDS011;44883;52.760;6.610;2022-08-25T00:33:22;7.93;;;3.67;;
59097;SDS011;44883;52.760;6.610;2022-08-25T00:35:48;8.70;;;4.15;;
59097;SDS011;44883;52.760;6.610;2022-08-25T00:38:14;6.30;;;3.75;;
59097;SDS011;44883;52.760;6.610;2022-08-25T00:40:41;6.38;;;3.55;;
59097;SDS011;44883;52.760;6.610;2022-08-25T00:43:08;6.28;;;3.70;;
59097;SDS011;44883;52.760;6.610;2022-08-25T00:45:34;5.10;;;3.55;;
59097;SDS011;44883;52.760;6.610;2022-08-25T00:48:00;7.28;;;3.70;;
59097;SDS011;44883;52.760;6.610;2022-08-25T00:50:26;6.22;;;4.03;;
59097;SDS011;44883;52.760;6.610;2022-08-25T00:52:54;7.03;;;3.80;;
59097;SDS011;44883;52.760;6.610;2022-08-25T00:55:30;6.80;;;3.47;;
59097;SDS011;44883;52.760;6.610;2022-08-25T00:58:15;6.53;;;3.60;;
59097;SDS011;44883;52.760;6.610;2022-08-25T01:00:50;6.68;;;3.60;;
59097;SDS011;44883;52.760;6.610;2022-08-25T01:03:18;5.35;;;3.20;;
59097;SDS011;44883;52.760;6.610;2022-08-25T01:05:44;5.95;;;3.80;;
59097;SDS011;44883;52.760;6.610;2022-08-25T01:08:11;6.28;;;4.00;;
59097;SDS011;44883;52.760;6.610;2022-08-25T01:10:38;5.57;;;3.60;;
59097;SDS011;44883;52.760;6.610;2022-08-25T01:13:08;5.68;;;3.53;;
59097;SDS011;44883;52.760;6.610;2022-08-25T01:15:48;5.85;;;3.38;;
59097;SDS011;44883;52.760;6.610;2022-08-25T01:18:19;6.47;;;3.30;;
59097;SDS011;44883;52.760;6.610;2022-08-25T01:20:52;5.95;;;3.35;;
59097;SDS011;44883;52.760;6.610;2022-08-25T01:23:19;5.43;;;3.10;;
59097;SDS011;44883;52.760;6.610;2022-08-25T01:25:47;6.45;;;3.58;;
59097;SDS011;44883;52.760;6.610;2022-08-25T01:28:20;5.47;;;3.65;;
59097;SDS011;44883;52.760;6.610;2022-08-25T01:30:46;6.05;;;3.40;;
59097;SDS011;44883;52.760;6.610;2022-08-25T01:33:13;4.82;;;2.85;;
59097;SDS011;44883;52.760;6.610;2022-08-25T01:35:41;4.50;;;3.10;;
59097;SDS011;44883;52.760;6.610;2022-08-25T01:38:07;7.28;;;3.63;;
59097;SDS011;44883;52.760;6.610;2022-08-25T01:40:34;5.60;;;3.15;;
59097;SDS011;44883;52.760;6.610;2022-08-25T01:45:40;5.00;;;3.03;;
59097;SDS011;44883;52.760;6.610;2022-08-25T01:48:08;6.05;;;3.17;;
59097;SDS011;44883;52.760;6.610;2022-08-25T01:50:34;5.10;;;2.78;;
59097;SDS011;44883;52.760;6.610;2022-08-25T01:53:06;6.60;;;3.63;;
59097;SDS011;44883;52.760;6.610;2022-08-25T01:55:36;5.80;;;3.08;;
59097;SDS011;44883;52.760;6.610;2022-08-25T01:58:24;5.45;;;2.80;;
59097;SDS011;44883;52.760;6.610;2022-08-25T02:00:53;7.03;;;3.20;;
59097;SDS011;44883;52.760;6.610;2022-08-25T02:03:21;7.20;;;3.05;;
59097;SDS011;44883;52.760;6.610;2022-08-25T02:05:49;4.57;;;3.15;;
59097;SDS011;44883;52.760;6.610;2022-08-25T02:08:15;5.40;;;3.05;;
59097;SDS011;44883;52.760;6.610;2022-08-25T02:10:41;6.18;;;3.03;;
59097;SDS011;44883;52.760;6.610;2022-08-25T02:13:08;4.53;;;2.85;;
59097;SDS011;44883;52.760;6.610;2022-08-25T02:15:34;4.57;;;3.00;;
59097;SDS011;44883;52.760;6.610;2022-08-25T02:18:03;5.57;;;3.05;;
59097;SDS011;44883;52.760;6.610;2022-08-25T02:20:29;6.85;;;2.83;;
59097;SDS011;44883;52.760;6.610;2022-08-25T02:22:54;3.33;;;2.58;;
59097;SDS011;44883;52.760;6.610;2022-08-25T02:25:20;4.72;;;2.67;;
59097;SDS011;44883;52.760;6.610;2022-08-25T02:27:46;6.80;;;3.17;;
59097;SDS011;44883;52.760;6.610;2022-08-25T02:30:15;5.78;;;3.17;;
59097;SDS011;44883;52.760;6.610;2022-08-25T02:32:41;6.45;;;3.50;;
59097;SDS011;44883;52.760;6.610;2022-08-25T02:35:07;5.20;;;2.80;;
59097;SDS011;44883;52.760;6.610;2022-08-25T02:37:33;5.95;;;3.00;;
59097;SDS011;44883;52.760;6.610;2022-08-25T02:39:59;4.78;;;2.72;;
59097;SDS011;44883;52.760;6.610;2022-08-25T02:42:25;5.93;;;2.92;;
59097;SDS011;44883;52.760;6.610;2022-08-25T02:44:52;6.85;;;2.80;;
59097;SDS011;44883;52.760;6.610;2022-08-25T02:47:18;5.53;;;3.00;;
59097;SDS011;44883;52.760;6.610;2022-08-25T02:49:44;6.75;;;3.05;;
59097;SDS011;44883;52.760;6.610;2022-08-25T02:52:10;4.60;;;2.78;;
59097;SDS011;44883;52.760;6.610;2022-08-25T02:54:36;4.25;;;2.90;;
59097;SDS011;44883;52.760;6.610;2022-08-25T02:57:01;5.90;;;2.90;;
59097;SDS011;44883;52.760;6.610;2022-08-25T02:59:28;5.38;;;3.22;;
59097;SDS011;44883;52.760;6.610;2022-08-25T03:01:54;5.07;;;2.80;;
59097;SDS011;44883;52.760;6.610;2022-08-25T03:04:20;5.93;;;3.20;;
59097;SDS011;44883;52.760;6.610;2022-08-25T03:06:46;5.85;;;2.90;;
59097;SDS011;44883;52.760;6.610;2022-08-25T03:09:12;5.10;;;2.60;;
59097;SDS011;44883;52.760;6.610;2022-08-25T03:11:38;5.95;;;3.20;;
59097;SDS011;44883;52.760;6.610;2022-08-25T03:14:04;5.55;;;2.97;;
59097;SDS011;44883;52.760;6.610;2022-08-25T03:16:30;5.75;;;3.28;;
59097;SDS011;44883;52.760;6.610;2022-08-25T03:18:56;4.95;;;3.08;;
59097;SDS011;44883;52.760;6.610;2022-08-25T03:21:23;5.68;;;2.92;;
59097;SDS011;44883;52.760;6.610;2022-08-25T03:23:49;5.30;;;2.88;;
59097;SDS011;44883;52.760;6.610;2022-08-25T03:26:15;7.30;;;2.97;;
59097;SDS011;44883;52.760;6.610;2022-08-25T03:28:59;7.70;;;3.15;;
59097;SDS011;44883;52.760;6.610;2022-08-25T03:31:29;6.85;;;3.30;;
59097;SDS011;44883;52.760;6.610;2022-08-25T03:33:56;6.85;;;3.00;;
59097;SDS011;44883;52.760;6.610;2022-08-25T03:36:23;4.88;;;3.00;;
59097;SDS011;44883;52.760;6.610;2022-08-25T03:38:50;5.15;;;3.08;;
59097;SDS011;44883;52.760;6.610;2022-08-25T03:41:20;5.90;;;2.70;;
59097;SDS011;44883;52.760;6.610;2022-08-25T03:43:48;6.45;;;2.90;;
59097;SDS011;44883;52.760;6.610;2022-08-25T03:46:25;5.95;;;2.92;;
59097;SDS011;44883;52.760;6.610;2022-08-25T03:48:55;4.95;;;2.88;;
59097;SDS011;44883;52.760;6.610;2022-08-25T03:51:23;5.50;;;3.15;;
59097;SDS011;44883;52.760;6.610;2022-08-25T03:53:50;5.88;;;2.88;;
59097;SDS011;44883;52.760;6.610;2022-08-25T03:56:16;6.57;;;2.95;;
59097;SDS011;44883;52.760;6.610;2022-08-25T03:58:42;4.32;;;2.95;;
59097;SDS011;44883;52.760;6.610;2022-08-25T04:01:07;4.45;;;2.78;;
59097;SDS011;44883;52.760;6.610;2022-08-25T04:03:34;5.45;;;3.33;;
59097;SDS011;44883;52.760;6.610;2022-08-25T04:06:01;5.72;;;2.90;;
59097;SDS011;44883;52.760;6.610;2022-08-25T04:08:28;5.45;;;2.90;;
59097;SDS011;44883;52.760;6.610;2022-08-25T04:10:53;6.35;;;3.15;;
59097;SDS011;44883;52.760;6.610;2022-08-25T04:13:19;8.52;;;3.10;;
59097;SDS011;44883;52.760;6.610;2022-08-25T04:15:45;6.45;;;3.03;;
59097;SDS011;44883;52.760;6.610;2022-08-25T04:18:11;8.15;;;3.00;;
59097;SDS011;44883;52.760;6.610;2022-08-25T04:20:37;8.00;;;3.63;;
59097;SDS011;44883;52.760;6.610;2022-08-25T04:23:04;6.28;;;3.10;;
59097;SDS011;44883;52.760;6.610;2022-08-25T04:25:30;7.68;;;3.30;;
59097;SDS011;44883;52.760;6.610;2022-08-25T04:27:55;6.45;;;3.08;;
59097;SDS011;44883;52.760;6.610;2022-08-25T04:30:21;5.15;;;3.30;;
59097;SDS011;44883;52.760;6.610;2022-08-25T04:32:47;5.53;;;3.20;;
59097;SDS011;44883;52.760;6.610;2022-08-25T04:35:14;5.78;;;3.28;;
59097;SDS011;44883;52.760;6.610;2022-08-25T04:37:39;6.10;;;3.40;;
59097;SDS011;44883;52.760;6.610;2022-08-25T04:40:05;5.80;;;3.63;;
59097;SDS011;44883;52.760;6.610;2022-08-25T04:42:32;5.80;;;3.22;;
59097;SDS011;44883;52.760;6.610;2022-08-25T04:44:58;5.15;;;3.20;;
59097;SDS011;44883;52.760;6.610;2022-08-25T04:47:26;6.30;;;3.42;;
59097;SDS011;44883;52.760;6.610;2022-08-25T04:49:52;5.68;;;3.22;;
59097;SDS011;44883;52.760;6.610;2022-08-25T04:52:18;6.35;;;3.50;;
59097;SDS011;44883;52.760;6.610;2022-08-25T04:54:45;5.68;;;3.30;;
59097;SDS011;44883;52.760;6.610;2022-08-25T04:57:11;5.10;;;3.30;;
59097;SDS011;44883;52.760;6.610;2022-08-25T04:59:36;10.00;;;3.40;;
59097;SDS011;44883;52.760;6.610;2022-08-25T05:02:03;7.05;;;3.30;;
59097;SDS011;44883;52.760;6.610;2022-08-25T05:04:29;6.47;;;3.40;;
59097;SDS011;44883;52.760;6.610;2022-08-25T05:06:56;5.38;;;3.63;;
59097;SDS011;44883;52.760;6.610;2022-08-25T05:09:23;6.10;;;3.22;;
59097;SDS011;44883;52.760;6.610;2022-08-25T05:11:49;6.07;;;3.63;;
59097;SDS011;44883;52.760;6.610;2022-08-25T05:14:15;3.97;;;1.60;;
59097;SDS011;44883;52.760;6.610;2022-08-25T05:16:45;7.38;;;3.70;;
59097;SDS011;44883;52.760;6.610;2022-08-25T05:19:11;8.68;;;4.00;;
59097;SDS011;44883;52.760;6.610;2022-08-25T05:21:37;7.15;;;4.30;;
59097;SDS011;44883;52.760;6.610;2022-08-25T05:24:03;6.40;;;4.30;;
59097;SDS011;44883;52.760;6.610;2022-08-25T05:26:30;8.38;;;4.40;;
59097;SDS011;44883;52.760;6.610;2022-08-25T05:28:57;7.63;;;4.35;;
59097;SDS011;44883;52.760;6.610;2022-08-25T05:31:24;7.78;;;3.92;;
59097;SDS011;44883;52.760;6.610;2022-08-25T05:33:51;7.57;;;4.40;;
59097;SDS011;44883;52.760;6.610;2022-08-25T05:36:18;8.75;;;4.30;;
59097;SDS011;44883;52.760;6.610;2022-08-25T05:38:45;7.85;;;4.45;;
59097;SDS011;44883;52.760;6.610;2022-08-25T05:41:12;6.82;;;4.00;;
59097;SDS011;44883;52.760;6.610;2022-08-25T05:43:40;8.13;;;3.70;;
59097;SDS011;44883;52.760;6.610;2022-08-25T05:46:08;6.55;;;4.10;;
59097;SDS011;44883;52.760;6.610;2022-08-25T05:48:34;6.78;;;3.83;;
59097;SDS011;44883;52.760;6.610;2022-08-25T05:51:01;7.35;;;3.72;;
59097;SDS011;44883;52.760;6.610;2022-08-25T05:53:28;5.95;;;3.83;;
59097;SDS011;44883;52.760;6.610;2022-08-25T05:55:56;7.88;;;3.88;;
59097;SDS011;44883;52.760;6.610;2022-08-25T05:58:23;7.75;;;3.90;;
59097;SDS011;44883;52.760;6.610;2022-08-25T06:00:52;6.00;;;3.40;;
59097;SDS011;44883;52.760;6.610;2022-08-25T06:03:18;8.15;;;3.53;;
59097;SDS011;44883;52.760;6.610;2022-08-25T06:05:44;6.68;;;3.83;;
59097;SDS011;44883;52.760;6.610;2022-08-25T06:08:10;5.57;;;3.30;;
59097;SDS011;44883;52.760;6.610;2022-08-25T06:10:36;7.68;;;3.60;;
59097;SDS011;44883;52.760;6.610;2022-08-25T06:13:02;7.18;;;3.80;;
59097;SDS011;44883;52.760;6.610;2022-08-25T06:15:28;7.20;;;4.15;;
59097;SDS011;44883;52.760;6.610;2022-08-25T06:17:54;6.40;;;3.70;;
59097;SDS011;44883;52.760;6.610;2022-08-25T06:20:23;6.93;;;3.35;;
59097;SDS011;44883;52.760;6.610;2022-08-25T06:22:51;7.35;;;3.78;;
59097;SDS011;44883;52.760;6.610;2022-08-25T06:25:18;6.50;;;3.40;;
59097;SDS011;44883;52.760;6.610;2022-08-25T06:27:45;7.65;;;3.55;;
59097;SDS011;44883;52.760;6.610;2022-08-25T06:30:12;6.75;;;3.42;;
59097;SDS011;44883;52.760;6.610;2022-08-25T06:32:40;6.30;;;3.75;;
59097;SDS011;44883;52.760;6.610;2022-08-25T06:35:09;5.63;;;3.47;;
59097;SDS011;44883;52.760;6.610;2022-08-25T06:37:37;6.82;;;3.55;;
59097;SDS011;44883;52.760;6.610;2022-08-25T06:40:06;5.50;;;3.70;;
59097;SDS011;44883;52.760;6.610;2022-08-25T06:42:32;7.35;;;3.75;;
59097;SDS011;44883;52.760;6.610;2022-08-25T06:44:58;6.95;;;3.72;;
59097;SDS011;44883;52.760;6.610;2022-08-25T06:47:24;7.15;;;3.50;;
59097;SDS011;44883;52.760;6.610;2022-08-25T06:49:50;5.10;;;3.38;;
59097;SDS011;44883;52.760;6.610;2022-08-25T06:52:15;7.65;;;3.60;;
59097;SDS011;44883;52.760;6.610;2022-08-25T06:54:41;5.68;;;3.42;;
59097;SDS011;44883;52.760;6.610;2022-08-25T06:57:07;6.88;;;4.13;;
59097;SDS011;44883;52.760;6.610;2022-08-25T06:59:33;6.55;;;3.55;;
59097;SDS011;44883;52.760;6.610;2022-08-25T07:02:00;6.90;;;3.88;;
59097;SDS011;44883;52.760;6.610;2022-08-25T07:04:27;6.70;;;3.67;;
59097;SDS011;44883;52.760;6.610;2022-08-25T07:06:52;5.63;;;3.60;;
59097;SDS011;44883;52.760;6.610;2022-08-25T07:09:18;6.47;;;3.58;;
59097;SDS011;44883;52.760;6.610;2022-08-25T07:11:44;6.20;;;3.90;;
59097;SDS011;44883;52.760;6.610;2022-08-25T07:14:11;4.85;;;3.50;;
59097;SDS011;44883;52.760;6.610;2022-08-25T07:16:39;6.78;;;3.70;;
59097;SDS011;44883;52.760;6.610;2022-08-25T07:19:05;6.32;;;3.50;;
59097;SDS011;44883;52.760;6.610;2022-08-25T07:21:32;7.18;;;3.60;;
59097;SDS011;44883;52.760;6.610;2022-08-25T07:23:59;5.47;;;3.50;;
59097;SDS011;44883;52.760;6.610;2022-08-25T07:26:28;7.03;;;3.70;;
59097;SDS011;44883;52.760;6.610;2022-08-25T07:28:55;5.80;;;3.30;;
59097;SDS011;44883;52.760;6.610;2022-08-25T07:31:22;6.78;;;3.42;;
59097;SDS011;44883;52.760;6.610;2022-08-25T07:33:48;5.70;;;3.83;;
59097;SDS011;44883;52.760;6.610;2022-08-25T07:36:33;6.80;;;3.47;;
59097;SDS011;44883;52.760;6.610;2022-08-25T07:38:58;7.30;;;3.70;;
59097;SDS011;44883;52.760;6.610;2022-08-25T07:41:29;6.75;;;3.70;;
59097;SDS011;44883;52.760;6.610;2022-08-25T07:43:56;5.15;;;3.20;;
59097;SDS011;44883;52.760;6.610;2022-08-25T07:46:21;8.00;;;4.35;;
59097;SDS011;44883;52.760;6.610;2022-08-25T07:48:47;6.32;;;3.20;;
59097;SDS011;44883;52.760;6.610;2022-08-25T07:51:12;5.95;;;3.40;;
59097;SDS011;44883;52.760;6.610;2022-08-25T07:53:39;6.22;;;3.55;;
59097;SDS011;44883;52.760;6.610;2022-08-25T07:56:10;6.57;;;3.67;;
59097;SDS011;44883;52.760;6.610;2022-08-25T07:58:36;6.32;;;3.40;;
59097;SDS011;44883;52.760;6.610;2022-08-25T08:01:02;6.90;;;3.65;;
59097;SDS011;44883;52.760;6.610;2022-08-25T08:03:28;6.28;;;3.20;;
59097;SDS011;44883;52.760;6.610;2022-08-25T08:05:54;5.95;;;3.28;;
59097;SDS011;44883;52.760;6.610;2022-08-25T08:08:20;5.70;;;3.45;;
59097;SDS011;44883;52.760;6.610;2022-08-25T08:10:46;8.10;;;3.58;;
59097;SDS011;44883;52.760;6.610;2022-08-25T08:13:12;5.40;;;3.10;;
59097;SDS011;44883;52.760;6.610;2022-08-25T08:15:40;5.28;;;3.30;;
59097;SDS011;44883;52.760;6.610;2022-08-25T08:18:07;8.05;;;3.40;;
59097;SDS011;44883;52.760;6.610;2022-08-25T08:20:33;6.60;;;3.50;;
59097;SDS011;44883;52.760;6.610;2022-08-25T08:22:58;7.47;;;3.35;;
59097;SDS011;44883;52.760;6.610;2022-08-25T08:25:24;6.10;;;3.35;;
59097;SDS011;44883;52.760;6.610;2022-08-25T08:27:50;5.00;;;3.15;;
59097;SDS011;44883;52.760;6.610;2022-08-25T08:30:16;5.20;;;3.63;;
59097;SDS011;44883;52.760;6.610;2022-08-25T08:32:41;5.38;;;3.60;;
59097;SDS011;44883;52.760;6.610;2022-08-25T08:35:08;6.90;;;3.28;;
59097;SDS011;44883;52.760;6.610;2022-08-25T08:37:33;7.32;;;3.50;;
59097;SDS011;44883;52.760;6.610;2022-08-25T08:40:02;5.88;;;3.50;;
59097;SDS011;44883;52.760;6.610;2022-08-25T08:45:17;6.97;;;3.20;;
59097;SDS011;44883;52.760;6.610;2022-08-25T08:53:31;9.40;;;3.40;;
59097;SDS011;44883;52.760;6.610;2022-08-25T08:56:00;4.85;;;3.08;;
59097;SDS011;44883;52.760;6.610;2022-08-25T08:58:46;3.95;;;2.75;;
59097;SDS011;44883;52.760;6.610;2022-08-25T09:01:17;5.32;;;3.13;;
59097;SDS011;44883;52.760;6.610;2022-08-25T09:03:50;4.88;;;2.80;;
59097;SDS011;44883;52.760;6.610;2022-08-25T09:08:57;6.95;;;2.97;;
59097;SDS011;44883;52.760;6.610;2022-08-25T09:11:38;4.93;;;2.70;;
59097;SDS011;44883;52.760;6.610;2022-08-25T09:14:08;7.30;;;2.88;;
59097;SDS011;44883;52.760;6.610;2022-08-25T09:22:37;9.25;;;2.60;;
59097;SDS011;44883;52.760;6.610;2022-08-25T09:28:06;4.90;;;2.95;;
59097;SDS011;44883;52.760;6.610;2022-08-25T09:33:17;5.47;;;2.50;;
59097;SDS011;44883;52.760;6.610;2022-08-25T09:35:45;5.97;;;2.70;;
59097;SDS011;44883;52.760;6.610;2022-08-25T09:38:12;8.55;;;2.70;;
59097;SDS011;44883;52.760;6.610;2022-08-25T09:40:39;4.65;;;2.50;;
59097;SDS011;44883;52.760;6.610;2022-08-25T09:46:08;5.57;;;2.70;;
59097;SDS011;44883;52.760;6.610;2022-08-25T09:48:52;7.28;;;2.97;;
59097;SDS011;44883;52.760;6.610;2022-08-25T09:51:30;5.32;;;2.80;;
59097;SDS011;44883;52.760;6.610;2022-08-25T09:56:53;6.75;;;2.60;;
59097;SDS011;44883;52.760;6.610;2022-08-25T09:59:26;4.30;;;2.72;;
59097;SDS011;44883;52.760;6.610;2022-08-25T10:01:55;5.72;;;2.65;;
59097;SDS011;44883;52.760;6.610;2022-08-25T10:04:29;5.18;;;2.80;;
59097;SDS011;44883;52.760;6.610;2022-08-25T10:07:04;4.45;;;2.67;;
59097;SDS011;44883;52.760;6.610;2022-08-25T10:09:45;5.78;;;2.75;;
59097;SDS011;44883;52.760;6.610;2022-08-25T10:12:23;6.32;;;2.67;;
59097;SDS011;44883;52.760;6.610;2022-08-25T10:14:57;5.88;;;2.60;;
59097;SDS011;44883;52.760;6.610;2022-08-25T10:17:27;4.85;;;2.85;;
59097;SDS011;44883;52.760;6.610;2022-08-25T10:22:35;5.57;;;2.50;;
59097;SDS011;44883;52.760;6.610;2022-08-25T10:25:02;5.10;;;2.67;;
59097;SDS011;44883;52.760;6.610;2022-08-25T10:30:26;4.88;;;2.50;;
59097;SDS011;44883;52.760;6.610;2022-08-25T10:38:41;5.28;;;2.83;;
59097;SDS011;44883;52.760;6.610;2022-08-25T10:46:55;6.78;;;2.63;;
59097;SDS011;44883;52.760;6.610;2022-08-25T10:49:44;5.63;;;2.40;;
59097;SDS011;44883;52.760;6.610;2022-08-25T10:55:20;4.97;;;2.47;;
59097;SDS011;44883;52.760;6.610;2022-08-25T11:01:10;5.78;;;2.65;;
59097;SDS011;44883;52.760;6.610;2022-08-25T11:03:55;6.15;;;2.50;;
59097;SDS011;44883;52.760;6.610;2022-08-25T11:06:36;7.75;;;2.83;;
59097;SDS011;44883;52.760;6.610;2022-08-25T11:09:04;4.50;;;2.17;;
59097;SDS011;44883;52.760;6.610;2022-08-25T11:11:36;3.03;;;2.05;;
59097;SDS011;44883;52.760;6.610;2022-08-25T11:14:10;4.32;;;2.30;;
59097;SDS011;44883;52.760;6.610;2022-08-25T11:19:36;3.53;;;2.28;;
59097;SDS011;44883;52.760;6.610;2022-08-25T11:22:15;6.00;;;2.65;;
59097;SDS011;44883;52.760;6.610;2022-08-25T11:27:44;5.50;;;2.55;;
59097;SDS011;44883;52.760;6.610;2022-08-25T11:30:17;4.32;;;2.30;;
59097;SDS011;44883;52.760;6.610;2022-08-25T11:32:44;3.90;;;2.22;;
59097;SDS011;44883;52.760;6.610;2022-08-25T11:35:13;4.87;;;2.30;;
59097;SDS011;44883;52.760;6.610;2022-08-25T11:37:45;5.00;;;2.50;;
59097;SDS011;44883;52.760;6.610;2022-08-25T11:40:40;5.05;;;2.38;;
59097;SDS011;44883;52.760;6.610;2022-08-25T11:54:57;4.43;;;2.20;;
59097;SDS011;44883;52.760;6.610;2022-08-25T11:57:42;4.22;;;2.42;;
59097;SDS011;44883;52.760;6.610;2022-08-25T12:02:58;4.45;;;2.42;;
59097;SDS011;44883;52.760;6.610;2022-08-25T12:05:49;3.35;;;2.42;;
59097;SDS011;44883;52.760;6.610;2022-08-25T12:14:07;3.97;;;1.95;;
59097;SDS011;44883;52.760;6.610;2022-08-25T12:30:24;5.13;;;2.50;;
59097;SDS011;44883;52.760;6.610;2022-08-25T12:35:52;5.47;;;2.42;;
59097;SDS011;44883;52.760;6.610;2022-08-25T12:38:36;5.90;;;2.70;;
59097;SDS011;44883;52.760;6.610;2022-08-25T12:41:13;4.85;;;2.60;;
59097;SDS011;44883;52.760;6.610;2022-08-25T12:43:46;5.82;;;2.85;;
59097;SDS011;44883;52.760;6.610;2022-08-25T12:51:22;5.82;;;2.42;;
59097;SDS011;44883;52.760;6.610;2022-08-25T12:53:52;3.85;;;2.53;;
59097;SDS011;44883;52.760;6.610;2022-08-25T12:56:36;5.93;;;2.55;;
59097;SDS011;44883;52.760;6.610;2022-08-25T12:59:17;4.78;;;2.30;;
59097;SDS011;44883;52.760;6.610;2022-08-25T13:01:52;3.58;;;1.95;;
59097;SDS011;44883;52.760;6.610;2022-08-25T13:10:10;4.85;;;2.45;;
59097;SDS011;44883;52.760;6.610;2022-08-25T13:12:50;7.50;;;2.70;;
59097;SDS011;44883;52.760;6.610;2022-08-25T13:15:39;5.80;;;3.00;;
59097;SDS011;44883;52.760;6.610;2022-08-25T13:18:20;4.38;;;2.50;;
59097;SDS011;44883;52.760;6.610;2022-08-25T13:20:50;5.07;;;2.67;;
59097;SDS011;44883;52.760;6.610;2022-08-25T13:23:21;5.78;;;2.20;;
59097;SDS011;44883;52.760;6.610;2022-08-25T13:25:52;3.60;;;2.30;;
59097;SDS011;44883;52.760;6.610;2022-08-25T13:28:29;4.10;;;2.00;;
59097;SDS011;44883;52.760;6.610;2022-08-25T13:30:59;4.60;;;2.55;;
59097;SDS011;44883;52.760;6.610;2022-08-25T13:33:26;3.30;;;2.25;;
59097;SDS011;44883;52.760;6.610;2022-08-25T13:35:53;4.88;;;2.33;;
59097;SDS011;44883;52.760;6.610;2022-08-25T13:38:40;3.53;;;2.60;;
59097;SDS011;44883;52.760;6.610;2022-08-25T13:41:08;4.63;;;2.42;;
59097;SDS011;44883;52.760;6.610;2022-08-25T13:43:34;4.78;;;2.30;;
59097;SDS011;44883;52.760;6.610;2022-08-25T13:46:01;3.83;;;2.33;;
59097;SDS011;44883;52.760;6.610;2022-08-25T13:48:32;5.60;;;2.70;;
59097;SDS011;44883;52.760;6.610;2022-08-25T13:53:48;4.80;;;2.22;;
59097;SDS011;44883;52.760;6.610;2022-08-25T13:56:26;3.95;;;2.55;;
59097;SDS011;44883;52.760;6.610;2022-08-25T13:58:55;2.92;;;2.13;;
59097;SDS011;44883;52.760;6.610;2022-08-25T14:01:27;3.83;;;2.30;;
59097;SDS011;44883;52.760;6.610;2022-08-25T14:03:55;4.40;;;2.35;;
59097;SDS011;44883;52.760;6.610;2022-08-25T14:06:41;4.70;;;2.60;;
59097;SDS011;44883;52.760;6.610;2022-08-25T14:09:11;4.28;;;2.40;;
59097;SDS011;44883;52.760;6.610;2022-08-25T14:14:12;3.40;;;2.22;;
59097;SDS011;44883;52.760;6.610;2022-08-25T14:17:02;3.83;;;2.33;;
59097;SDS011;44883;52.760;6.610;2022-08-25T14:19:30;3.40;;;2.20;;
59097;SDS011;44883;52.760;6.610;2022-08-25T14:21:56;3.70;;;2.40;;
59097;SDS011;44883;52.760;6.610;2022-08-25T14:24:26;4.18;;;2.47;;
59097;SDS011;44883;52.760;6.610;2022-08-25T14:26:55;4.97;;;2.70;;
59097;SDS011;44883;52.760;6.610;2022-08-25T14:29:20;5.00;;;2.40;;
59097;SDS011;44883;52.760;6.610;2022-08-25T14:31:46;4.95;;;2.42;;
59097;SDS011;44883;52.760;6.610;2022-08-25T14:34:13;4.35;;;2.78;;
59097;SDS011;44883;52.760;6.610;2022-08-25T14:36:42;4.88;;;2.90;;
59097;SDS011;44883;52.760;6.610;2022-08-25T14:39:08;4.85;;;2.70;;
59097;SDS011;44883;52.760;6.610;2022-08-25T14:41:36;6.38;;;3.13;;
59097;SDS011;44883;52.760;6.610;2022-08-25T14:44:04;6.18;;;2.83;;
59097;SDS011;44883;52.760;6.610;2022-08-25T14:46:31;5.05;;;2.72;;
59097;SDS011;44883;52.760;6.610;2022-08-25T14:49:01;4.95;;;2.60;;
59097;SDS011;44883;52.760;6.610;2022-08-25T14:51:30;4.60;;;2.70;;
59097;SDS011;44883;52.760;6.610;2022-08-25T14:54:02;5.90;;;2.90;;
59097;SDS011;44883;52.760;6.610;2022-08-25T14:56:30;4.10;;;2.90;;
59097;SDS011;44883;52.760;6.610;2022-08-25T14:58:56;5.15;;;3.03;;
59097;SDS011;44883;52.760;6.610;2022-08-25T15:01:22;5.00;;;3.55;;
59097;SDS011;44883;52.760;6.610;2022-08-25T15:03:51;5.00;;;3.20;;
59097;SDS011;44883;52.760;6.610;2022-08-25T15:06:18;5.13;;;3.10;;
59097;SDS011;44883;52.760;6.610;2022-08-25T15:08:44;6.90;;;3.60;;
59097;SDS011;44883;52.760;6.610;2022-08-25T15:11:29;6.43;;;3.40;;
59097;SDS011;44883;52.760;6.610;2022-08-25T15:13:56;7.65;;;3.22;;
59097;SDS011;44883;52.760;6.610;2022-08-25T15:16:38;6.38;;;3.42;;
59097;SDS011;44883;52.760;6.610;2022-08-25T15:19:08;7.05;;;3.65;;
59097;SDS011;44883;52.760;6.610;2022-08-25T15:21:38;5.03;;;3.50;;
59097;SDS011;44883;52.760;6.610;2022-08-25T15:24:04;5.43;;;3.20;;
59097;SDS011;44883;52.760;6.610;2022-08-25T15:26:32;6.35;;;3.40;;
59097;SDS011;44883;52.760;6.610;2022-08-25T15:29:10;6.07;;;3.63;;
59097;SDS011;44883;52.760;6.610;2022-08-25T15:31:36;5.80;;;3.20;;
59097;SDS011;44883;52.760;6.610;2022-08-25T15:34:03;5.75;;;3.35;;
59097;SDS011;44883;52.760;6.610;2022-08-25T15:36:30;7.90;;;3.47;;
59097;SDS011;44883;52.760;6.610;2022-08-25T15:38:57;6.43;;;3.53;;
59097;SDS011;44883;52.760;6.610;2022-08-25T15:41:23;5.88;;;3.63;;
59097;SDS011;44883;52.760;6.610;2022-08-25T15:43:48;6.03;;;3.53;;
59097;SDS011;44883;52.760;6.610;2022-08-25T15:46:15;5.68;;;3.90;;
59097;SDS011;44883;52.760;6.610;2022-08-25T15:48:44;4.63;;;3.60;;
59097;SDS011;44883;52.760;6.610;2022-08-25T15:51:11;5.15;;;3.67;;
59097;SDS011;44883;52.760;6.610;2022-08-25T15:53:36;5.60;;;3.58;;
59097;SDS011;44883;52.760;6.610;2022-08-25T15:56:05;5.40;;;3.33;;
59097;SDS011;44883;52.760;6.610;2022-08-25T15:58:31;6.30;;;3.92;;
59097;SDS011;44883;52.760;6.610;2022-08-25T16:00:57;6.55;;;3.58;;
59097;SDS011;44883;52.760;6.610;2022-08-25T16:03:22;7.05;;;4.05;;
59097;SDS011;44883;52.760;6.610;2022-08-25T16:05:49;6.18;;;3.38;;
59097;SDS011;44883;52.760;6.610;2022-08-25T16:08:14;4.75;;;3.17;;
59097;SDS011;44883;52.760;6.610;2022-08-25T16:10:41;5.57;;;3.33;;
59097;SDS011;44883;52.760;6.610;2022-08-25T16:13:08;8.40;;;3.63;;
59097;SDS011;44883;52.760;6.610;2022-08-25T16:15:34;5.80;;;3.72;;
59097;SDS011;44883;52.760;6.610;2022-08-25T16:18:01;5.80;;;3.50;;
59097;SDS011;44883;52.760;6.610;2022-08-25T16:20:28;5.13;;;3.53;;
59097;SDS011;44883;52.760;6.610;2022-08-25T16:22:55;5.53;;;3.90;;
59097;SDS011;44883;52.760;6.610;2022-08-25T16:25:23;5.75;;;3.80;;
59097;SDS011;44883;52.760;6.610;2022-08-25T16:27:49;6.18;;;3.60;;
59097;SDS011;44883;52.760;6.610;2022-08-25T16:30:15;6.28;;;3.90;;
59097;SDS011;44883;52.760;6.610;2022-08-25T16:32:41;7.93;;;3.63;;
59097;SDS011;44883;52.760;6.610;2022-08-25T16:35:06;6.47;;;3.90;;
59097;SDS011;44883;52.760;6.610;2022-08-25T16:37:33;6.57;;;3.80;;
59097;SDS011;44883;52.760;6.610;2022-08-25T16:40:00;6.70;;;4.35;;
59097;SDS011;44883;52.760;6.610;2022-08-25T16:42:26;6.78;;;3.90;;
59097;SDS011;44883;52.760;6.610;2022-08-25T16:44:52;6.45;;;3.70;;
59097;SDS011;44883;52.760;6.610;2022-08-25T16:47:18;7.93;;;4.18;;
59097;SDS011;44883;52.760;6.610;2022-08-25T16:49:44;5.25;;;3.80;;
59097;SDS011;44883;52.760;6.610;2022-08-25T16:52:11;6.53;;;3.80;;